Terminal Aerodrome Forecast
Issued by NWS

Home | Current Version | Previous Version | Text Only | Print | Product List | Glossary On
Versions: 1 2 3 4 5 6 7 8 9 10 11 12 13 14
369
FTUS45 KRIW 200524
TAFRKS
TAF
KRKS 200524Z 2006/2106 23007KT 3SM -SN OVC015
      TEMPO 2006/2010 1 1/2SM -SN BKN006
     FM201200 26008KT 2SM BR BKN006
     FM201600 26008KT P6SM SCT009 OVC020
     FM210400 21005KT 3SM BR BKN005=

USA.gov is the U.S. government's official web portal to all federal, state and local government web resources and services.